Terminal Aerodrome Forecast
Issued by NWS Louisville, KY

Home | Current Version | Previous Version | Text Only | Print | Product List | Glossary On
Versions: 1 2 3 4 5 6 7 8 9 10 11 12 13
465
FTUS43 KLMK 260529
TAFSDF
TAF
KSDF 260529Z 2606/2712 23003KT P6SM SCT250
      TEMPO 2611/2613 5SM HZ
     FM261500 VRB03KT P6SM SCT040
     FM270100 09005KT P6SM SCT250
      TEMPO 2710/2712 5SM HZ SCT100=

USA.gov is the U.S. government's official web portal to all federal, state and local government web resources and services.